createdAt,value
2022-11-10T00:01:25.134Z,13.79
2022-11-10T00:03:56.590Z,13.78
2022-11-10T00:06:24.990Z,13.75
2022-11-10T00:08:53.631Z,13.72
2022-11-10T00:11:22.591Z,13.69
2022-11-10T00:14:09.142Z,13.68
2022-11-10T00:16:55.700Z,13.67
2022-11-10T00:19:26.547Z,13.65
2022-11-10T00:21:57.427Z,13.65
2022-11-10T00:24:26.392Z,13.62
2022-11-10T00:26:55.712Z,13.60
2022-11-10T00:29:24.342Z,13.56
2022-11-10T00:31:52.792Z,13.55
2022-11-10T00:34:21.235Z,13.51
2022-11-10T00:36:49.614Z,13.48
2022-11-10T00:39:18.049Z,13.45
2022-11-10T00:41:46.439Z,13.42
2022-11-10T00:44:14.756Z,13.38
2022-11-10T00:46:43.177Z,13.35
2022-11-10T00:49:11.658Z,13.32
2022-11-10T00:51:40.217Z,13.28
2022-11-10T00:54:08.651Z,13.24
2022-11-10T00:56:36.993Z,13.21
2022-11-10T00:59:05.731Z,13.21
2022-11-10T01:01:36.861Z,13.19
2022-11-10T01:04:07.870Z,13.14
2022-11-10T01:06:36.256Z,13.12
2022-11-10T01:09:04.773Z,13.06
2022-11-10T01:11:35.337Z,13.03
2022-11-10T01:14:03.708Z,13.01
2022-11-10T01:16:37.752Z,12.98
2022-11-10T01:19:06.104Z,12.95
2022-11-10T01:21:34.437Z,12.93
2022-11-10T01:24:03.069Z,12.89
2022-11-10T01:26:31.452Z,12.88
2022-11-10T01:29:07.102Z,12.89
2022-11-10T01:31:35.482Z,12.88
2022-11-10T01:34:03.861Z,12.83
2022-11-10T01:36:32.332Z,12.80
2022-11-10T01:39:03.392Z,12.75
2022-11-10T01:41:31.812Z,12.70
2022-11-10T01:44:21.948Z,12.64
2022-11-10T01:46:52.904Z,12.62
2022-11-10T01:49:27.213Z,12.60
2022-11-10T01:52:06.254Z,12.59
2022-11-10T01:54:39.852Z,12.55
2022-11-10T01:57:11.884Z,12.55
2022-11-10T01:59:48.678Z,12.53
2022-11-10T02:02:53.294Z,12.52
2022-11-10T02:05:24.492Z,12.48
2022-11-10T02:07:53.142Z,12.45
2022-11-10T02:10:25.557Z,12.37
2022-11-10T02:12:53.945Z,12.34
2022-11-10T02:15:22.654Z,12.27
2022-11-10T02:17:50.930Z,12.23
2022-11-10T02:20:21.224Z,12.18
2022-11-10T02:22:49.559Z,12.14
2022-11-10T02:25:22.028Z,12.10
2022-11-10T02:27:52.213Z,12.06
2022-11-10T02:30:27.533Z,12.01
2022-11-10T02:32:56.257Z,11.97
2022-11-10T02:35:24.596Z,11.91
2022-11-10T02:37:55.452Z,11.82
2022-11-10T02:40:24.014Z,11.74
2022-11-10T02:42:52.726Z,11.66
2022-11-10T02:45:21.077Z,11.60
2022-11-10T02:47:49.406Z,11.56
2022-11-10T02:50:18.129Z,11.50
2022-11-10T02:52:46.423Z,11.48
2022-11-10T02:55:14.742Z,11.42
2022-11-10T02:57:45.642Z,11.39
2022-11-10T03:00:19.300Z,11.40
2022-11-10T03:02:50.531Z,11.40
2022-11-10T03:05:18.922Z,11.36
2022-11-10T03:08:02.653Z,11.35
2022-11-10T03:10:36.334Z,11.28
2022-11-10T03:13:05.957Z,11.24
2022-11-10T03:15:37.226Z,11.20
2022-11-10T03:18:06.955Z,11.19
2022-11-10T03:20:40.531Z,11.13
2022-11-10T03:23:11.657Z,11.08
2022-11-10T03:25:40.026Z,11.01
2022-11-10T03:28:08.452Z,10.94
2022-11-10T03:30:37.139Z,10.87
2022-11-10T03:33:08.012Z,10.85
2022-11-10T03:35:42.435Z,10.81
2022-11-10T03:38:10.722Z,10.77
2022-11-10T03:41:04.183Z,10.74
2022-11-10T03:43:38.917Z,10.69
2022-11-10T03:46:13.127Z,10.65
2022-11-10T03:48:41.414Z,10.59
2022-11-10T03:51:09.867Z,10.54
2022-11-10T03:53:38.186Z,10.49
2022-11-10T03:56:07.587Z,10.50
2022-11-10T03:58:38.228Z,10.49
2022-11-10T04:01:06.852Z,10.47
2022-11-10T04:03:38.327Z,10.43
2022-11-10T04:06:31.282Z,10.41
2022-11-10T04:09:02.301Z,10.32
2022-11-10T04:11:51.425Z,10.28
2022-11-10T04:14:42.551Z,10.17
2022-11-10T04:17:10.881Z,10.12
2022-11-10T04:19:39.206Z,10.09
2022-11-10T04:22:07.538Z,10.09
2022-11-10T04:24:36.652Z,10.09
2022-11-10T04:27:05.307Z,10.08
2022-11-10T04:29:36.662Z,10.09
2022-11-10T04:32:07.278Z,10.07
2022-11-10T04:34:40.995Z,10.01
2022-11-10T04:37:09.220Z,9.97
2022-11-10T04:39:37.501Z,9.95
2022-11-10T04:42:08.137Z,9.94
2022-11-10T04:44:36.501Z,9.94
2022-11-10T04:47:11.595Z,9.92
2022-11-10T04:49:40.492Z,9.90
2022-11-10T04:52:10.733Z,9.83
2022-11-10T04:54:41.790Z,9.78
2022-11-10T04:57:10.041Z,9.74
2022-11-10T04:59:40.596Z,9.71
2022-11-10T05:02:12.310Z,9.71
2022-11-10T05:04:42.962Z,9.68
2022-11-10T05:07:16.753Z,9.68
2022-11-10T05:09:47.442Z,9.69
2022-11-10T05:12:21.184Z,9.70
2022-11-10T05:14:50.659Z,9.72
2022-11-10T05:17:20.658Z,9.71
2022-11-10T05:19:55.230Z,9.67
2022-11-10T05:22:25.288Z,9.60
2022-11-10T05:25:03.081Z,9.54
2022-11-10T05:27:33.676Z,9.46
2022-11-10T05:30:04.529Z,9.43
2022-11-10T05:32:35.470Z,9.40
2022-11-10T05:35:07.067Z,9.37
2022-11-10T05:37:43.632Z,9.35
2022-11-10T05:40:16.770Z,9.34
2022-11-10T05:42:56.337Z,9.29
2022-11-10T05:45:27.145Z,9.23
2022-11-10T05:47:56.662Z,9.22
2022-11-10T05:50:30.211Z,9.17
2022-11-10T05:52:58.526Z,9.16
2022-11-10T05:55:30.293Z,9.12
2022-11-10T05:58:00.957Z,9.12
2022-11-10T06:00:33.910Z,9.11
2022-11-10T06:03:04.161Z,9.13
2022-11-10T06:05:38.421Z,9.14
2022-11-10T06:08:10.587Z,9.18
2022-11-10T06:10:39.884Z,9.21
2022-11-10T06:13:18.197Z,9.22
2022-11-10T06:15:50.420Z,9.26
2022-11-10T06:18:21.703Z,9.28
2022-11-10T06:20:57.952Z,9.29
2022-11-10T06:23:32.383Z,9.30
2022-11-10T06:26:00.812Z,9.33
2022-11-10T06:28:31.712Z,9.36
2022-11-10T06:31:12.603Z,9.37
2022-11-10T06:33:43.660Z,9.39
2022-11-10T06:36:13.533Z,9.41
2022-11-10T06:38:42.185Z,9.42
2022-11-10T06:41:13.642Z,9.44
2022-11-10T06:43:44.831Z,9.45
2022-11-10T06:46:16.182Z,9.47
2022-11-10T06:48:48.734Z,9.49
2022-11-10T06:51:19.692Z,9.53
2022-11-10T06:53:51.511Z,9.57
2022-11-10T06:56:22.868Z,9.56
2022-11-10T06:58:55.857Z,9.56
2022-11-10T07:01:30.192Z,9.56
2022-11-10T07:04:18.836Z,9.54
2022-11-10T07:06:48.797Z,9.52
2022-11-10T07:09:20.967Z,9.48
2022-11-10T07:11:49.252Z,9.47
2022-11-10T07:14:20.183Z,9.44
2022-11-10T07:16:48.583Z,9.42
2022-11-10T07:19:27.052Z,9.41
2022-11-10T07:22:05.454Z,9.42
2022-11-10T07:24:38.408Z,9.41
2022-11-10T07:27:09.779Z,9.40
2022-11-10T07:29:40.810Z,9.37
2022-11-10T07:32:09.120Z,9.39
2022-11-10T07:34:47.732Z,9.40
2022-11-10T07:37:28.071Z,9.44
2022-11-10T07:39:56.468Z,9.48
2022-11-10T07:42:24.822Z,9.51
2022-11-10T07:44:55.917Z,9.55
2022-11-10T07:47:25.788Z,9.60
2022-11-10T07:49:54.108Z,9.59
2022-11-10T07:52:31.850Z,9.60
2022-11-10T07:55:02.197Z,9.59
2022-11-10T07:57:31.542Z,9.54
2022-11-10T08:00:02.582Z,9.49
2022-11-10T08:02:30.916Z,9.43
2022-11-10T08:04:59.227Z,9.35
2022-11-10T08:07:33.376Z,9.27
2022-11-10T08:10:04.665Z,9.22
2022-11-10T08:12:42.106Z,9.18
2022-11-10T08:15:13.915Z,9.15
2022-11-10T08:17:45.143Z,9.11
2022-11-10T08:20:16.825Z,9.07
2022-11-10T08:22:48.668Z,9.03
2022-11-10T08:25:17.103Z,8.90
2022-11-10T08:27:46.107Z,8.84
2022-11-10T08:30:22.107Z,8.84
2022-11-10T08:32:50.429Z,8.83
2022-11-10T08:35:18.744Z,8.80
2022-11-10T08:37:51.014Z,8.75
2022-11-10T08:40:21.323Z,8.67
2022-11-10T08:42:50.234Z,8.65
2022-11-10T08:45:20.830Z,8.65
2022-11-10T08:47:49.143Z,8.64
2022-11-10T08:50:17.515Z,8.62
2022-11-10T08:52:45.914Z,8.59
2022-11-10T08:55:14.262Z,8.56
2022-11-10T08:57:46.653Z,8.56
2022-11-10T09:00:16.779Z,8.53
2022-11-10T09:02:45.293Z,8.46
2022-11-10T09:05:18.691Z,8.42
2022-11-10T09:07:51.192Z,8.38
2022-11-10T09:10:19.864Z,8.33
2022-11-10T09:12:48.295Z,8.29
2022-11-10T09:15:19.063Z,8.24
2022-11-10T09:17:49.372Z,8.24
2022-11-10T09:20:19.574Z,8.18
2022-11-10T09:22:48.017Z,8.12
2022-11-10T09:25:21.612Z,8.10
2022-11-10T09:27:54.872Z,8.07
2022-11-10T09:30:26.268Z,8.04
2022-11-10T09:33:00.668Z,8.05
2022-11-10T09:35:29.522Z,8.03
2022-11-10T09:38:02.418Z,8.00
2022-11-10T09:40:44.312Z,7.96
2022-11-10T09:43:21.836Z,7.96
2022-11-10T09:45:55.587Z,7.96
2022-11-10T09:48:34.792Z,7.87
2022-11-10T09:51:20.983Z,7.84
2022-11-10T09:53:53.316Z,7.82
2022-11-10T09:56:39.834Z,7.82
2022-11-10T09:59:28.407Z,7.79
2022-11-10T10:02:05.625Z,7.76
2022-11-10T10:05:08.511Z,7.70
2022-11-10T10:07:36.862Z,7.64
2022-11-10T10:10:24.272Z,7.61
2022-11-10T10:13:10.760Z,7.56
2022-11-10T10:15:52.952Z,7.53
2022-11-10T10:18:51.401Z,7.50
2022-11-10T10:21:49.027Z,7.43
2022-11-10T10:24:22.310Z,7.41
2022-11-10T10:27:00.025Z,7.42
2022-11-10T10:29:45.743Z,7.42
2022-11-10T10:32:18.646Z,7.42
2022-11-10T10:34:53.304Z,7.44
2022-11-10T10:37:41.502Z,7.47
2022-11-10T10:40:22.895Z,7.41
2022-11-10T10:42:57.636Z,7.34
2022-11-10T10:45:35.464Z,7.27
2022-11-10T10:48:06.747Z,7.24
2022-11-10T10:50:37.947Z,7.23
2022-11-10T10:53:09.303Z,7.22
2022-11-10T10:55:51.869Z,7.24
2022-11-10T10:58:27.495Z,7.19
2022-11-10T11:01:00.713Z,7.15
2022-11-10T11:03:52.133Z,7.11
2022-11-10T11:06:36.104Z,7.10
2022-11-10T11:09:32.168Z,7.07
2022-11-10T11:12:12.373Z,7.08
2022-11-10T11:14:45.645Z,7.06
2022-11-10T11:17:24.353Z,7.04
2022-11-10T11:20:12.903Z,7.04
2022-11-10T11:23:00.982Z,7.02
2022-11-10T11:25:46.426Z,7.00
2022-11-10T11:28:35.215Z,6.96
2022-11-10T11:31:22.096Z,6.93
2022-11-10T11:33:57.593Z,6.94
2022-11-10T11:36:44.662Z,6.95
2022-11-10T11:39:42.583Z,6.97
2022-11-10T11:42:23.812Z,6.91
2022-11-10T11:44:59.691Z,6.90
2022-11-10T11:47:51.861Z,6.91
2022-11-10T11:50:30.373Z,6.90
2022-11-10T11:53:14.869Z,6.89
2022-11-10T11:56:15.442Z,6.90
2022-11-10T11:58:56.998Z,6.92
2022-11-10T12:01:43.893Z,6.91
2022-11-10T12:05:10.451Z,6.87
2022-11-10T12:07:51.801Z,6.84
2022-11-10T12:10:41.897Z,6.81
2022-11-10T12:13:39.222Z,6.80
2022-11-10T12:16:10.586Z,6.83
2022-11-10T12:19:07.890Z,6.85
2022-11-10T12:22:04.358Z,6.84
2022-11-10T12:24:48.495Z,6.78
2022-11-10T12:27:26.650Z,6.73
2022-11-10T12:30:07.815Z,6.68
2022-11-10T12:32:58.856Z,6.61
2022-11-10T12:35:40.950Z,6.54
2022-11-10T12:38:24.075Z,6.50
2022-11-10T12:41:12.020Z,6.49
2022-11-10T12:43:52.134Z,6.51
2022-11-10T12:46:33.177Z,6.56
2022-11-10T12:49:27.611Z,6.56
2022-11-10T12:52:38.091Z,6.54
2022-11-10T12:55:19.140Z,6.46
2022-11-10T12:58:14.230Z,6.46
2022-11-10T13:01:01.987Z,6.48
2022-11-10T13:03:44.542Z,6.46
2022-11-10T13:06:45.106Z,6.44
2022-11-10T13:09:57.458Z,6.46
2022-11-10T13:12:31.657Z,6.45
2022-11-10T13:15:03.060Z,6.45
2022-11-10T13:17:43.818Z,6.44
2022-11-10T13:20:53.452Z,6.40
2022-11-10T13:23:39.170Z,6.38
2022-11-10T13:26:52.309Z,6.35
2022-11-10T13:29:42.097Z,6.32
2022-11-10T13:32:17.634Z,6.34
2022-11-10T13:34:57.622Z,6.35
2022-11-10T13:37:41.649Z,6.36
2022-11-10T13:40:46.718Z,6.36
2022-11-10T13:43:26.670Z,6.38
2022-11-10T13:46:05.461Z,6.38
2022-11-10T13:48:43.700Z,6.37
2022-11-10T13:51:46.901Z,6.34
2022-11-10T13:54:56.312Z,6.29
2022-11-10T13:57:47.851Z,6.28
2022-11-10T14:00:19.918Z,6.24
2022-11-10T14:03:04.365Z,6.21
2022-11-10T14:05:36.502Z,6.19
2022-11-10T14:11:34.745Z,6.11
2022-11-10T14:14:22.230Z,6.08
2022-11-10T14:17:00.459Z,6.07
2022-11-10T14:19:54.971Z,6.06
2022-11-10T14:22:52.341Z,6.05
2022-11-10T14:25:37.309Z,6.02
2022-11-10T14:28:28.121Z,6.03
2022-11-10T14:31:00.477Z,6.04
2022-11-10T14:34:01.801Z,6.06
2022-11-10T14:36:35.705Z,6.05
2022-11-10T14:39:07.384Z,6.03
2022-11-10T14:41:39.141Z,5.99
2022-11-10T14:44:14.899Z,5.97
2022-11-10T14:46:54.102Z,5.94
2022-11-10T14:49:47.617Z,5.96
2022-11-10T14:52:25.778Z,6.01
2022-11-10T14:54:57.148Z,6.06
2022-11-10T14:57:31.032Z,6.04
2022-11-10T15:00:11.060Z,6.04
2022-11-10T15:02:39.902Z,6.06
2022-11-10T15:05:35.108Z,6.04
2022-11-10T15:08:05.611Z,6.01
2022-11-10T15:10:40.194Z,6.01
2022-11-10T15:13:21.172Z,6.03
2022-11-10T15:16:09.890Z,6.04
2022-11-10T15:19:19.112Z,6.04
2022-11-10T15:21:36.607Z,6.08
2022-11-10T15:24:13.793Z,6.10
2022-11-10T15:26:54.676Z,6.12
2022-11-10T15:29:33.788Z,6.13
2022-11-10T15:32:07.188Z,6.18
2022-11-10T15:34:55.829Z,6.23
2022-11-10T15:37:38.852Z,6.29
2022-11-10T15:40:49.787Z,6.36
2022-11-10T15:43:26.472Z,6.45
2022-11-10T15:46:28.357Z,6.53
2022-11-10T15:49:01.532Z,6.61
2022-11-10T15:51:43.458Z,6.67
2022-11-10T15:54:20.503Z,6.73
2022-11-10T15:56:49.041Z,6.79
2022-11-10T15:59:23.391Z,6.86
2022-11-10T16:04:59.777Z,7.07
2022-11-10T16:07:37.131Z,7.14
2022-11-10T16:10:12.892Z,7.25
2022-11-10T16:12:59.495Z,7.34
2022-11-10T16:15:36.832Z,7.44
2022-11-10T16:18:08.336Z,7.55
2022-11-10T16:20:37.203Z,7.60
2022-11-10T16:23:07.714Z,7.72
2022-11-10T16:26:01.269Z,7.80
2022-11-10T16:28:36.195Z,7.89
2022-11-10T16:31:11.468Z,7.98
2022-11-10T16:33:47.228Z,8.08
2022-11-10T16:36:32.009Z,8.16
2022-11-10T16:39:17.309Z,8.22
2022-11-10T16:41:48.687Z,8.25
2022-11-10T16:44:25.624Z,8.31
2022-11-10T16:46:58.250Z,8.37
2022-11-10T16:49:43.186Z,8.40
2022-11-10T16:52:38.897Z,8.48
2022-11-10T16:55:07.988Z,8.53
2022-11-10T16:57:40.083Z,8.61
2022-11-10T17:00:10.325Z,8.70
2022-11-10T17:02:40.898Z,8.78
2022-11-10T17:05:23.107Z,8.84
2022-11-10T17:07:54.803Z,8.90
2022-11-10T17:10:32.503Z,8.99
2022-11-10T17:13:03.972Z,9.08
2022-11-10T17:15:43.732Z,9.13
2022-11-10T17:18:22.000Z,9.22
2022-11-10T17:20:53.152Z,9.31
2022-11-10T17:23:26.777Z,9.41
2022-11-10T17:25:58.399Z,9.49
2022-11-10T17:28:29.307Z,9.60
2022-11-10T17:31:00.672Z,9.68
2022-11-10T17:33:41.272Z,9.79
2022-11-10T17:36:26.348Z,9.88
2022-11-10T17:38:54.420Z,9.92
2022-11-10T17:41:27.793Z,9.96
2022-11-10T17:43:58.492Z,10.04
2022-11-10T17:46:27.114Z,10.12
2022-11-10T17:49:01.659Z,10.19
2022-11-10T17:51:38.733Z,10.24
2022-11-10T17:54:16.004Z,10.30
2022-11-10T17:56:46.748Z,10.36
2022-11-10T17:59:18.068Z,10.43
2022-11-10T18:01:46.468Z,10.51
2022-11-10T18:04:17.938Z,10.60
2022-11-10T18:06:46.406Z,10.68
2022-11-10T18:09:14.744Z,10.74
2022-11-10T18:11:48.492Z,10.79
2022-11-10T18:14:16.860Z,10.82
2022-11-10T18:16:50.213Z,10.88
2022-11-10T18:19:21.403Z,10.95
2022-11-10T18:21:49.642Z,11.02
2022-11-10T18:24:17.878Z,11.08
2022-11-10T18:26:47.364Z,11.19
2022-11-10T18:29:15.643Z,11.26
2022-11-10T18:31:43.916Z,11.33
2022-11-10T18:34:12.612Z,11.41
2022-11-10T18:36:40.897Z,11.47
2022-11-10T18:39:20.423Z,11.52
2022-11-10T18:41:57.448Z,11.63
2022-11-10T18:44:25.791Z,11.71
2022-11-10T18:46:56.055Z,11.79
2022-11-10T18:49:26.799Z,11.88
2022-11-10T18:51:57.968Z,11.93
2022-11-10T18:54:29.603Z,11.98
2022-11-10T18:56:58.148Z,12.05
2022-11-10T18:59:35.512Z,12.17
2022-11-10T19:02:03.970Z,12.29
2022-11-10T19:04:32.317Z,12.36
2022-11-10T19:07:00.770Z,12.43
2022-11-10T19:09:29.168Z,12.50
2022-11-10T19:11:57.452Z,12.60
2022-11-10T19:14:25.868Z,12.63
2022-11-10T19:16:57.973Z,12.71
2022-11-10T19:19:26.277Z,12.86
2022-11-10T19:21:54.792Z,12.95
2022-11-10T19:24:42.456Z,12.97
2022-11-10T19:27:19.923Z,13.05
2022-11-10T19:29:48.217Z,13.13
2022-11-10T19:32:25.108Z,13.20
2022-11-10T19:34:56.651Z,13.29
2022-11-10T19:37:25.082Z,13.36
2022-11-10T19:39:53.331Z,13.42
2022-11-10T19:42:21.661Z,13.47
2022-11-10T19:44:53.309Z,13.55
2022-11-10T19:47:24.561Z,13.64
2022-11-10T19:49:56.291Z,13.73
2022-11-10T19:52:25.095Z,13.78
2022-11-10T19:54:56.313Z,13.82
2022-11-10T19:57:33.556Z,13.88
2022-11-10T20:00:01.932Z,13.96
2022-11-10T20:02:30.286Z,14.03
2022-11-10T20:05:13.595Z,14.06
2022-11-10T20:08:00.309Z,14.11
2022-11-10T20:10:31.446Z,14.12
2022-11-10T20:13:00.022Z,14.24
2022-11-10T20:15:31.172Z,14.33
2022-11-10T20:18:13.632Z,14.35
2022-11-10T20:20:46.428Z,14.42
2022-11-10T20:23:16.796Z,14.44
2022-11-10T20:25:50.283Z,14.49
2022-11-10T20:28:21.177Z,14.55
2022-11-10T20:30:49.526Z,14.65
2022-11-10T20:33:20.486Z,14.72
2022-11-10T20:35:50.978Z,14.80
2022-11-10T20:38:19.352Z,14.88
2022-11-10T20:40:48.054Z,14.96
2022-11-10T20:43:24.184Z,15.06
2022-11-10T20:45:58.748Z,15.08
2022-11-10T20:48:27.478Z,15.12
2022-11-10T20:50:55.808Z,15.11
2022-11-10T20:53:27.382Z,15.15
2022-11-10T20:56:05.578Z,15.21
2022-11-10T20:58:34.101Z,15.30
2022-11-10T21:01:16.032Z,15.42
2022-11-10T21:03:44.502Z,15.49
2022-11-10T21:06:17.946Z,15.57
2022-11-10T21:08:46.567Z,15.69
2022-11-10T21:11:34.700Z,15.74
2022-11-10T21:14:03.167Z,15.79
2022-11-10T21:16:31.535Z,15.85
2022-11-10T21:18:59.861Z,15.92
2022-11-10T21:21:35.229Z,16.03
2022-11-10T21:24:08.211Z,16.11
2022-11-10T21:26:36.841Z,16.05
2022-11-10T21:29:09.301Z,16.07
2022-11-10T21:31:37.595Z,16.11
2022-11-10T21:34:06.215Z,16.21
2022-11-10T21:36:34.580Z,16.28
2022-11-10T21:39:03.062Z,16.46
2022-11-10T21:41:33.715Z,16.57
2022-11-10T21:44:02.582Z,16.69
2022-11-10T21:46:31.010Z,16.79
2022-11-10T21:49:03.123Z,16.93
2022-11-10T21:51:35.111Z,17.09
2022-11-10T21:54:03.545Z,17.17
2022-11-10T21:56:38.025Z,17.25
2022-11-10T21:59:08.795Z,17.34
2022-11-10T22:01:40.080Z,17.41
2022-11-10T22:04:10.604Z,17.41
2022-11-10T22:06:57.543Z,17.44
2022-11-10T22:09:44.391Z,17.43
2022-11-10T22:12:32.675Z,17.44
2022-11-10T22:15:20.495Z,17.28
2022-11-10T22:18:07.085Z,17.19
2022-11-10T22:20:35.513Z,17.06
2022-11-10T22:23:04.013Z,16.86
2022-11-10T22:25:35.254Z,16.80
2022-11-10T22:28:03.563Z,16.74
2022-11-10T22:30:32.458Z,16.79
2022-11-10T22:33:20.919Z,16.81
2022-11-10T22:35:56.136Z,16.79
2022-11-10T22:38:27.413Z,16.79
2022-11-10T22:41:16.978Z,16.84
2022-11-10T22:44:03.778Z,16.82
2022-11-10T22:46:37.944Z,16.68
2022-11-10T22:49:13.350Z,16.49
2022-11-10T22:51:42.394Z,16.30
2022-11-10T22:54:15.329Z,16.19
2022-11-10T22:56:44.662Z,16.05
2022-11-10T22:59:16.545Z,15.94
2022-11-10T23:01:45.753Z,15.86
2022-11-10T23:04:17.426Z,15.79
2022-11-10T23:06:47.720Z,15.70
2022-11-10T23:09:16.071Z,15.64
2022-11-10T23:11:44.355Z,15.58
2022-11-10T23:14:12.744Z,15.54
2022-11-10T23:16:43.964Z,15.52
2022-11-10T23:19:12.441Z,15.48
2022-11-10T23:21:40.738Z,15.43
2022-11-10T23:24:11.902Z,15.34
2022-11-10T23:26:40.334Z,15.24
2022-11-10T23:29:11.773Z,15.17
2022-11-10T23:31:40.053Z,15.08
2022-11-10T23:34:08.507Z,15.04
2022-11-10T23:36:36.814Z,14.98
2022-11-10T23:39:07.371Z,14.93
2022-11-10T23:41:37.854Z,14.89
2022-11-10T23:44:11.044Z,14.87
2022-11-10T23:46:39.379Z,14.83
2022-11-10T23:49:07.705Z,14.79
2022-11-10T23:51:36.413Z,14.77
2022-11-10T23:54:07.074Z,14.74
2022-11-10T23:56:35.429Z,14.71
2022-11-10T23:59:03.811Z,14.68
